West Yellowstone, MT

6:42 PM MDT on April 24, 2015 (GMT -0600)
Lower Beartrap | | Change Station
CLOSE
Current Station
Personal Weather Station
Location: West Yellowstone, MT
Elevation: 6565 ft
Nearby Weather Stations

Elev 6565 ft 44.79 °N, 111.14 °W | Updated 12 minutes ago

Rain
Rain
41.0 °F
Feels Like 34 °F
N
11.4
Wind Variable Wind from South
Gusts 18.3 mph

Today
High -- | Low -- °F
--% Chance of Precip.
Yesterday
High -- | Low -- °F
Precip. -- in
6:25 AM 8:20 PM
Waxing Crescent, 40% visible
Pressure 29.71 in
Visibility -9999.0 miles
Clouds
Windchill 34 °F
Dew Point 37 °F
Humidity 87%
Rainfall 0.02 in
Snow Depth Not available.
UV Not available.
Pollen 7.80 out of 12
Air Quality Not available.
Flu Activity Local Activity
METAR KP60 242356Z AUTO 00000KT 04/M01 A2973 RMK AO1 SLP060 T00441011 10100 20028 50001 $

More Conditions Fewer Conditions

Pressure 29.71 in
Visibility -9999.0 miles
Clouds
Windchill 34 °F
Dew Point 37 °F
Humidity 87%
Rainfall 0.02 in
Snow Depth Not available.
UV Not available.
Pollen 7.80 out of 12
Air Quality Not available.
Flu Activity Local Activity
METAR KP60 242356Z AUTO 00000KT 04/M01 A2973 RMK AO1 SLP060 T00441011 10100 20028 50001 $

More Conditions Fewer Conditions

10-Day Weather Forecast

Almanac

Astronomy

Apr. 24, 2015 Rise Set
Actual Time
Civil Twilight
Nautical Twilight
Astronomical Twilight
Moon
Length of Visible Light
Length of Day
Tomorrow will be .
, % of the Moon is Illuminated

Today's Extremes

State Highs State Lows

Community

WunderPhotos

Upload Photos

1,816,526 photos uploaded!

WunderBlogs® & News

Nearby

Air Quality

  Air Quality AQ Index Pollutant
Not available.

Snow Depth

Station Depth Elevation

Earthquake Activity

City Distance Mag. Time & Date
Minimum magnitude displayed is 2.5.

Coastal Water Temperatures

Place Temperature

Stations

Nearby Weather Stations

Station Location Temp. Windchill Dew Point Humidity Wind Precip. Elev Updated Type